createdAt,value
2022-10-21T00:00:08.319Z,12.13
2022-10-21T00:03:19.137Z,11.73
2022-10-21T00:06:25.567Z,13.83
2022-10-21T00:09:31.165Z,12.47
2022-10-21T00:12:39.110Z,15.37
2022-10-21T00:15:47.830Z,16.93
2022-10-21T00:18:54.344Z,17.00
2022-10-21T00:22:00.184Z,17.43
2022-10-21T00:25:09.552Z,17.63
2022-10-21T00:28:15.148Z,16.83
2022-10-21T00:31:24.391Z,18.20
2022-10-21T00:34:31.184Z,18.67
2022-10-21T00:37:37.940Z,15.50
2022-10-21T00:40:43.631Z,16.67
2022-10-21T00:44:03.580Z,14.37
2022-10-21T00:47:16.195Z,17.33
2022-10-21T00:50:29.345Z,16.13
2022-10-21T00:53:36.489Z,18.10
2022-10-21T00:56:46.577Z,15.97
2022-10-21T00:59:56.576Z,14.77
2022-10-21T01:03:07.434Z,14.93
2022-10-21T01:06:15.745Z,15.47
2022-10-21T01:09:23.414Z,16.03
2022-10-21T01:12:45.963Z,15.03
2022-10-21T01:15:58.893Z,16.83
2022-10-21T01:19:30.968Z,14.80
2022-10-21T01:22:59.147Z,16.33
2022-10-21T01:26:33.038Z,14.83
2022-10-21T01:30:25.942Z,16.80
2022-10-21T01:33:43.261Z,16.70
2022-10-21T01:36:57.991Z,16.73
2022-10-21T01:40:10.668Z,14.70
2022-10-21T01:43:21.934Z,13.20
2022-10-21T01:46:32.598Z,13.57
2022-10-21T01:49:44.993Z,14.27
2022-10-21T01:52:55.365Z,12.27
2022-10-21T01:56:06.846Z,13.80
2022-10-21T01:59:16.152Z,12.67
2022-10-21T02:02:23.483Z,14.20
2022-10-21T02:05:35.004Z,12.37
2022-10-21T02:08:40.721Z,14.03
2022-10-21T02:11:50.113Z,17.10
2022-10-21T02:14:56.788Z,17.37
2022-10-21T02:18:07.892Z,18.73
2022-10-21T02:21:21.002Z,18.60
2022-10-21T02:24:32.123Z,18.20
2022-10-21T02:27:38.052Z,19.00
2022-10-21T02:30:53.517Z,20.03
2022-10-21T02:34:07.798Z,22.47
2022-10-21T02:37:30.164Z,19.93
2022-10-21T02:40:40.283Z,16.47
2022-10-21T02:43:52.085Z,19.70
2022-10-21T02:46:57.737Z,18.87
2022-10-21T02:50:06.468Z,20.00
2022-10-21T02:53:16.572Z,17.90
2022-10-21T02:56:23.073Z,15.27
2022-10-21T02:59:28.802Z,16.83
2022-10-21T03:02:35.545Z,15.83
2022-10-21T03:05:41.082Z,16.20
2022-10-21T03:08:50.361Z,14.73
2022-10-21T03:11:55.932Z,12.50
2022-10-21T03:15:03.506Z,14.33
2022-10-21T03:18:09.094Z,13.63
2022-10-21T03:21:15.518Z,12.57
2022-10-21T03:24:28.531Z,15.30
2022-10-21T03:27:35.554Z,13.27
2022-10-21T03:30:41.174Z,10.90
2022-10-21T03:33:47.573Z,13.23
2022-10-21T03:36:53.146Z,12.17
2022-10-21T03:40:05.437Z,14.50
2022-10-21T03:43:13.951Z,13.67
2022-10-21T03:46:20.664Z,13.17
2022-10-21T03:49:26.588Z,14.97
2022-10-21T03:52:33.137Z,14.67
2022-10-21T03:55:42.157Z,16.27
2022-10-21T03:58:48.615Z,16.10
2022-10-21T04:01:54.366Z,13.13
2022-10-21T04:05:00.845Z,16.77
2022-10-21T04:08:08.030Z,15.87
2022-10-21T04:11:17.235Z,19.83
2022-10-21T04:14:23.014Z,17.30
2022-10-21T04:17:29.868Z,24.07
2022-10-21T04:20:35.817Z,29.40
2022-10-21T04:23:42.669Z,38.20
2022-10-21T04:26:50.999Z,47.53
2022-10-21T04:29:57.417Z,37.57
2022-10-21T04:33:03.549Z,35.67
2022-10-21T04:36:10.643Z,38.70
2022-10-21T04:39:16.389Z,29.30
2022-10-21T04:45:37.713Z,20.30
2022-10-21T04:48:44.313Z,34.00
2022-10-21T04:51:49.980Z,30.37
2022-10-21T04:54:56.481Z,44.77
2022-10-21T04:58:07.451Z,24.13
2022-10-21T05:01:14.105Z,22.30
2022-10-21T05:04:19.713Z,18.03
2022-10-21T05:07:26.206Z,19.97
2022-10-21T05:10:32.112Z,14.70
2022-10-21T05:13:41.367Z,20.00
2022-10-21T05:16:47.023Z,15.30
2022-10-21T05:19:58.992Z,14.10
2022-10-21T05:23:06.620Z,16.90
2022-10-21T05:26:13.110Z,14.07
2022-10-21T05:29:21.615Z,21.20
2022-10-21T05:32:28.461Z,15.67
2022-10-21T05:35:34.070Z,15.33
2022-10-21T05:38:40.586Z,20.50
2022-10-21T05:41:47.997Z,15.77
2022-10-21T05:44:57.603Z,16.83
2022-10-21T05:48:03.551Z,13.60
2022-10-21T05:51:10.655Z,14.30
2022-10-21T05:54:16.424Z,15.70
2022-10-21T05:57:22.970Z,16.80
2022-10-21T06:00:31.498Z,16.13
2022-10-21T06:03:38.263Z,16.50
2022-10-21T06:06:43.983Z,16.77
2022-10-21T06:09:50.535Z,15.37
2022-10-21T06:12:56.118Z,17.07
2022-10-21T06:19:16.789Z,17.13
2022-10-21T06:22:23.586Z,18.93
2022-10-21T06:25:29.875Z,12.73
2022-10-21T06:28:38.486Z,14.17
2022-10-21T06:31:46.911Z,13.17
2022-10-21T06:34:53.400Z,11.70
2022-10-21T06:37:58.939Z,15.93
2022-10-21T06:41:12.443Z,13.30
2022-10-21T06:44:19.152Z,15.60
2022-10-21T06:47:28.360Z,13.80
2022-10-21T06:50:34.224Z,13.33
2022-10-21T06:53:41.868Z,15.07
2022-10-21T06:56:47.445Z,16.17
2022-10-21T06:59:53.896Z,14.03
2022-10-21T07:03:03.832Z,16.23
2022-10-21T07:06:10.887Z,14.33
2022-10-21T07:09:16.599Z,15.20
2022-10-21T07:12:23.738Z,11.70
2022-10-21T07:15:29.616Z,11.47
2022-10-21T07:18:41.871Z,13.50
2022-10-21T07:21:48.328Z,16.17
2022-10-21T07:24:55.277Z,15.97
2022-10-21T07:28:00.977Z,16.00
2022-10-21T07:31:09.100Z,19.03
2022-10-21T07:34:17.567Z,18.27
2022-10-21T07:37:23.975Z,18.43
2022-10-21T07:40:30.347Z,15.47
2022-10-21T07:43:37.077Z,16.93
2022-10-21T07:46:45.899Z,12.57
2022-10-21T07:49:55.378Z,14.03
2022-10-21T07:53:11.917Z,14.20
2022-10-21T07:56:22.531Z,15.17
2022-10-21T07:59:28.173Z,16.03
2022-10-21T08:02:35.671Z,11.70
2022-10-21T08:05:45.270Z,12.50
2022-10-21T08:08:51.773Z,16.13
2022-10-21T08:11:57.671Z,14.97
2022-10-21T08:15:04.086Z,18.13
2022-10-21T08:18:09.870Z,18.60
2022-10-21T08:21:19.530Z,16.37
2022-10-21T08:24:25.297Z,11.53
2022-10-21T08:27:39.797Z,14.10
2022-10-21T08:30:45.906Z,13.70
2022-10-21T08:33:53.075Z,13.37
2022-10-21T08:37:03.609Z,11.77
2022-10-21T08:40:13.201Z,10.33
2022-10-21T08:43:24.103Z,11.37
2022-10-21T08:46:36.107Z,9.10
2022-10-21T08:49:52.847Z,10.43
2022-10-21T08:53:08.229Z,10.37
2022-10-21T08:56:20.039Z,9.80
2022-10-21T08:59:28.592Z,9.43
2022-10-21T09:02:52.086Z,7.67
2022-10-21T09:06:21.637Z,10.60
2022-10-21T09:09:36.991Z,8.57
2022-10-21T09:12:57.202Z,8.73
2022-10-21T09:16:10.622Z,9.17
2022-10-21T09:19:32.630Z,11.37
2022-10-21T09:22:51.887Z,11.20
2022-10-21T09:26:06.568Z,8.50
2022-10-21T09:29:31.225Z,13.00
2022-10-21T09:32:41.796Z,9.40
2022-10-21T09:35:51.925Z,10.83
2022-10-21T09:39:03.397Z,15.97
2022-10-21T09:42:35.241Z,10.33
2022-10-21T09:45:43.433Z,9.20
2022-10-21T09:52:20.411Z,10.17
2022-10-21T09:55:28.271Z,8.07
2022-10-21T09:58:56.715Z,9.07
2022-10-21T10:02:10.828Z,9.10
2022-10-21T10:05:37.559Z,9.07
2022-10-21T10:08:45.045Z,12.90
2022-10-21T10:11:55.147Z,10.47
2022-10-21T10:15:30.703Z,8.77
2022-10-21T10:18:38.113Z,8.23
2022-10-21T10:21:43.873Z,9.87
2022-10-21T10:24:50.318Z,7.97
2022-10-21T10:27:59.542Z,6.93
2022-10-21T10:31:10.114Z,7.17
2022-10-21T10:34:24.895Z,9.90
2022-10-21T10:37:35.141Z,7.67
2022-10-21T10:40:43.987Z,10.47
2022-10-21T10:43:53.133Z,8.33
2022-10-21T10:47:06.254Z,8.50
2022-10-21T10:50:48.064Z,8.43
2022-10-21T10:54:04.514Z,6.60
2022-10-21T10:57:17.100Z,9.23
2022-10-21T11:00:24.643Z,7.73
2022-10-21T11:03:41.471Z,7.67
2022-10-21T11:06:54.224Z,7.07
2022-10-21T11:10:09.879Z,7.37
2022-10-21T11:13:18.508Z,7.77
2022-10-21T11:16:59.471Z,8.23
2022-10-21T11:20:23.336Z,7.30
2022-10-21T11:23:48.767Z,7.10
2022-10-21T11:27:00.799Z,6.20
2022-10-21T11:30:15.263Z,8.30
2022-10-21T11:33:31.967Z,6.93
2022-10-21T11:36:51.619Z,6.40
2022-10-21T11:40:03.379Z,6.27
2022-10-21T11:43:24.473Z,6.73
2022-10-21T11:46:41.944Z,6.23
2022-10-21T11:50:00.039Z,6.90
2022-10-21T11:53:31.561Z,6.43
2022-10-21T11:56:45.596Z,7.63
2022-10-21T12:00:07.073Z,5.40
2022-10-21T12:03:37.904Z,8.60
2022-10-21T12:06:52.354Z,8.53
2022-10-21T12:10:07.465Z,6.87
2022-10-21T12:13:21.074Z,6.67
2022-10-21T12:16:31.311Z,7.67
2022-10-21T12:19:39.676Z,6.40
2022-10-21T12:22:46.721Z,7.10
2022-10-21T12:26:07.057Z,8.20
2022-10-21T12:29:21.394Z,7.17
2022-10-21T12:32:32.477Z,7.73
2022-10-21T12:35:50.542Z,7.00
2022-10-21T12:38:57.795Z,7.47
2022-10-21T12:42:15.613Z,8.93
2022-10-21T12:45:40.169Z,5.53
2022-10-21T12:48:49.007Z,10.07
2022-10-21T12:51:59.484Z,7.13
2022-10-21T12:55:09.475Z,8.23
2022-10-21T12:58:30.687Z,6.57
2022-10-21T13:01:42.417Z,6.90
2022-10-21T13:04:50.772Z,5.50
2022-10-21T13:08:18.655Z,7.27
2022-10-21T13:11:27.188Z,7.57
2022-10-21T13:14:42.829Z,6.33
2022-10-21T13:17:53.769Z,5.37
2022-10-21T13:21:03.342Z,6.00
2022-10-21T13:24:17.004Z,6.73
2022-10-21T13:27:30.128Z,8.40
2022-10-21T13:30:41.006Z,6.63
2022-10-21T13:33:55.047Z,5.50
2022-10-21T13:37:01.123Z,7.27
2022-10-21T13:40:17.217Z,7.00
2022-10-21T13:43:41.386Z,6.50
2022-10-21T13:46:50.833Z,6.67
2022-10-21T13:49:59.255Z,10.97
2022-10-21T13:53:21.686Z,7.93
2022-10-21T13:56:29.229Z,6.53
2022-10-21T13:59:35.712Z,6.73
2022-10-21T14:02:49.817Z,7.60
2022-10-21T14:06:01.115Z,7.40
2022-10-21T14:09:10.579Z,8.93
2022-10-21T14:12:25.805Z,6.97
2022-10-21T14:15:40.868Z,6.33
2022-10-21T14:18:52.090Z,6.37
2022-10-21T14:22:00.394Z,7.43
2022-10-21T14:25:15.864Z,6.33
2022-10-21T14:28:22.276Z,8.87
2022-10-21T14:31:28.860Z,6.97
2022-10-21T14:34:39.265Z,5.80
2022-10-21T14:37:47.382Z,6.53
2022-10-21T14:41:02.751Z,4.80
2022-10-21T14:44:16.009Z,5.60
2022-10-21T14:47:23.953Z,4.43
2022-10-21T14:50:33.262Z,4.97
2022-10-21T14:53:46.483Z,5.67
2022-10-21T14:56:52.981Z,5.70
2022-10-21T14:59:59.094Z,5.10
2022-10-21T15:03:07.352Z,5.27
2022-10-21T15:06:18.472Z,4.50
2022-10-21T15:09:25.132Z,6.10
2022-10-21T15:12:35.457Z,5.53
2022-10-21T15:15:49.752Z,4.73
2022-10-21T15:19:00.547Z,5.17
2022-10-21T15:22:25.938Z,5.60
2022-10-21T15:25:31.746Z,7.70
2022-10-21T15:28:38.923Z,5.53
2022-10-21T15:31:44.680Z,4.57
2022-10-21T15:34:54.783Z,4.77
2022-10-21T15:38:03.304Z,4.83
2022-10-21T15:41:13.371Z,5.27
2022-10-21T15:44:24.133Z,4.70
2022-10-21T15:47:30.667Z,3.27
2022-10-21T15:50:36.994Z,5.63
2022-10-21T15:53:46.237Z,3.90
2022-10-21T15:56:53.381Z,4.83
2022-10-21T15:59:59.842Z,4.17
2022-10-21T16:03:07.432Z,4.97
2022-10-21T16:06:17.397Z,4.80
2022-10-21T16:09:27.613Z,4.60
2022-10-21T16:12:34.078Z,5.97
2022-10-21T16:15:39.676Z,6.37
2022-10-21T16:18:46.789Z,4.83
2022-10-21T16:21:52.367Z,4.43
2022-10-21T16:25:03.525Z,5.10
2022-10-21T16:28:09.174Z,6.50
2022-10-21T16:31:17.509Z,5.50
2022-10-21T16:34:23.222Z,8.33
2022-10-21T16:37:31.064Z,5.80
2022-10-21T16:40:39.564Z,6.83
2022-10-21T16:43:46.917Z,5.53
2022-10-21T16:50:41.631Z,6.00
2022-10-21T16:53:48.179Z,5.87
2022-10-21T16:56:56.624Z,5.50
2022-10-21T17:00:03.456Z,5.37
2022-10-21T17:03:09.485Z,5.77
2022-10-21T17:06:20.279Z,6.03
2022-10-21T17:09:25.885Z,4.60
2022-10-21T17:12:35.812Z,5.60
2022-10-21T17:15:41.686Z,5.07
2022-10-21T17:18:48.435Z,6.93
2022-10-21T17:21:54.146Z,5.90
2022-10-21T17:25:00.624Z,5.37
2022-10-21T17:28:10.447Z,5.83
2022-10-21T17:31:18.407Z,5.43
2022-10-21T17:34:30.833Z,5.30
2022-10-21T17:37:37.617Z,6.40
2022-10-21T17:40:43.719Z,5.40
2022-10-21T17:43:52.996Z,5.53
2022-10-21T17:46:58.631Z,6.80
2022-10-21T17:50:07.292Z,5.77
2022-10-21T17:53:12.974Z,5.83
2022-10-21T17:56:19.852Z,5.30
2022-10-21T17:59:28.337Z,6.07
2022-10-21T18:02:36.076Z,4.70
2022-10-21T18:05:44.069Z,6.33
2022-10-21T18:08:50.835Z,6.67
2022-10-21T18:11:58.608Z,7.80
2022-10-21T18:15:12.204Z,6.90
2022-10-21T18:18:18.135Z,7.90
2022-10-21T18:21:26.200Z,6.23
2022-10-21T18:24:32.053Z,6.00
2022-10-21T18:27:40.295Z,5.70
2022-10-21T18:30:48.987Z,5.47
2022-10-21T18:33:57.369Z,6.93
2022-10-21T18:37:03.300Z,5.30
2022-10-21T18:40:12.995Z,6.80
2022-10-21T18:43:18.630Z,6.00
2022-10-21T18:46:27.930Z,8.30
2022-10-21T18:49:33.526Z,7.67
2022-10-21T18:52:39.932Z,7.03
2022-10-21T18:55:45.546Z,5.97
2022-10-21T18:58:52.969Z,7.40
2022-10-21T19:02:03.584Z,8.40
2022-10-21T19:05:11.863Z,8.13
2022-10-21T19:08:17.488Z,6.67
2022-10-21T19:11:23.973Z,5.80
2022-10-21T19:14:29.612Z,6.97
2022-10-21T19:17:41.239Z,6.93
2022-10-21T19:20:47.049Z,8.20
2022-10-21T19:23:54.088Z,7.23
2022-10-21T19:27:03.545Z,7.73
2022-10-21T19:30:10.888Z,6.80
2022-10-21T19:33:19.253Z,8.47
2022-10-21T19:36:25.737Z,6.93
2022-10-21T19:39:31.423Z,7.23
2022-10-21T19:42:38.217Z,8.10
2022-10-21T19:45:43.975Z,6.67
2022-10-21T19:48:53.283Z,7.70
2022-10-21T19:51:58.887Z,10.17
2022-10-21T19:55:08.868Z,8.73
2022-10-21T19:58:14.497Z,8.67
2022-10-21T20:01:23.436Z,7.90
2022-10-21T20:04:35.209Z,6.90
2022-10-21T20:07:42.704Z,6.07
2022-10-21T20:10:49.255Z,6.37
2022-10-21T20:13:55.738Z,8.63
2022-10-21T20:17:03.535Z,6.87
2022-10-21T20:20:13.237Z,7.53
2022-10-21T20:23:20.182Z,7.83
2022-10-21T20:26:26.862Z,6.97
2022-10-21T20:29:32.700Z,7.60
2022-10-21T20:32:39.156Z,7.57
2022-10-21T20:35:47.580Z,7.83
2022-10-21T20:38:56.059Z,8.17
2022-10-21T20:42:03.590Z,8.27
2022-10-21T20:45:10.870Z,8.53
2022-10-21T20:48:16.774Z,8.03
2022-10-21T20:51:29.090Z,7.70
2022-10-21T20:54:34.647Z,8.40
2022-10-21T20:57:41.386Z,7.77
2022-10-21T21:00:47.338Z,8.00
2022-10-21T21:03:54.779Z,7.43
2022-10-21T21:07:03.283Z,8.47
2022-10-21T21:10:10.599Z,6.30
2022-10-21T21:13:16.653Z,6.77
2022-10-21T21:16:25.416Z,6.67
2022-10-21T21:19:30.985Z,6.10
2022-10-21T21:22:41.638Z,6.47
2022-10-21T21:25:47.758Z,6.73
2022-10-21T21:28:54.522Z,7.30
2022-10-21T21:32:00.415Z,7.53
2022-10-21T21:35:10.074Z,6.97
2022-10-21T21:38:18.472Z,6.30
2022-10-21T21:41:26.117Z,6.00
2022-10-21T21:44:31.868Z,5.63
2022-10-21T21:47:38.573Z,8.60
2022-10-21T21:50:45.354Z,5.57
2022-10-21T21:53:54.954Z,5.57
2022-10-21T21:57:27.316Z,8.00
2022-10-21T22:00:27.334Z,5.73
2022-10-21T22:03:32.915Z,5.67
2022-10-21T22:06:40.852Z,5.07
2022-10-21T22:09:49.537Z,6.43
2022-10-21T22:12:56.705Z,6.83
2022-10-21T22:16:02.781Z,6.13
2022-10-21T22:19:09.248Z,7.03
2022-10-21T22:22:14.881Z,6.17
2022-10-21T22:25:24.247Z,7.13
2022-10-21T22:28:30.470Z,6.63
2022-10-21T22:31:36.981Z,5.33
2022-10-21T22:34:42.688Z,6.17
2022-10-21T22:37:49.121Z,6.07
2022-10-21T22:41:06.042Z,4.90
2022-10-21T22:44:14.043Z,5.83
2022-10-21T22:47:23.482Z,4.90
2022-10-21T22:50:33.118Z,6.30
2022-10-21T22:53:39.436Z,6.30
2022-10-21T22:56:48.925Z,6.83
2022-10-21T22:59:54.549Z,5.60
2022-10-21T23:03:02.034Z,5.97
2022-10-21T23:06:09.993Z,6.43
2022-10-21T23:09:16.568Z,6.60
2022-10-21T23:12:25.062Z,6.30
2022-10-21T23:15:31.506Z,5.83
2022-10-21T23:18:37.552Z,7.77
2022-10-21T23:21:44.232Z,5.43
2022-10-21T23:24:50.269Z,5.30
2022-10-21T23:27:59.831Z,4.33
2022-10-21T23:31:08.168Z,4.47
2022-10-21T23:34:15.171Z,5.83
2022-10-21T23:40:32.324Z,5.27
2022-10-21T23:43:40.809Z,6.50
2022-10-21T23:46:48.258Z,7.00
2022-10-21T23:49:53.808Z,4.03
2022-10-21T23:53:00.337Z,5.60
2022-10-21T23:56:08.450Z,4.30
2022-10-21T23:59:17.715Z,5.10
